sensor_id;sensor_type;location;lat;lon;timestamp;P1;durP1;ratioP1;P2;durP2;ratioP2
16775;SDS011;8505;49.456;8.164;2023-04-10T00:01:16;9.87;;;6.53;;
16775;SDS011;8505;49.456;8.164;2023-04-10T00:03:43;9.35;;;6.60;;
16775;SDS011;8505;49.456;8.164;2023-04-10T00:06:11;8.23;;;6.30;;
16775;SDS011;8505;49.456;8.164;2023-04-10T00:08:40;9.52;;;6.57;;
16775;SDS011;8505;49.456;8.164;2023-04-10T00:11:08;9.48;;;6.30;;
16775;SDS011;8505;49.456;8.164;2023-04-10T00:13:36;8.70;;;6.00;;
16775;SDS011;8505;49.456;8.164;2023-04-10T00:16:03;8.60;;;6.20;;
16775;SDS011;8505;49.456;8.164;2023-04-10T00:18:31;8.85;;;6.20;;
16775;SDS011;8505;49.456;8.164;2023-04-10T00:20:59;8.82;;;6.32;;
16775;SDS011;8505;49.456;8.164;2023-04-10T00:23:28;8.45;;;6.13;;
16775;SDS011;8505;49.456;8.164;2023-04-10T00:25:58;8.48;;;6.25;;
16775;SDS011;8505;49.456;8.164;2023-04-10T00:28:26;8.63;;;6.30;;
16775;SDS011;8505;49.456;8.164;2023-04-10T00:30:53;8.75;;;6.63;;
16775;SDS011;8505;49.456;8.164;2023-04-10T00:33:21;10.48;;;6.90;;
16775;SDS011;8505;49.456;8.164;2023-04-10T00:35:49;8.60;;;6.28;;
16775;SDS011;8505;49.456;8.164;2023-04-10T00:38:16;8.85;;;6.60;;
16775;SDS011;8505;49.456;8.164;2023-04-10T00:40:44;9.15;;;6.68;;
16775;SDS011;8505;49.456;8.164;2023-04-10T00:43:13;9.98;;;6.93;;
16775;SDS011;8505;49.456;8.164;2023-04-10T00:45:41;8.77;;;6.32;;
16775;SDS011;8505;49.456;8.164;2023-04-10T00:48:09;9.23;;;6.40;;
16775;SDS011;8505;49.456;8.164;2023-04-10T00:50:37;10.18;;;6.60;;
16775;SDS011;8505;49.456;8.164;2023-04-10T00:53:04;10.52;;;6.70;;
16775;SDS011;8505;49.456;8.164;2023-04-10T00:55:33;10.20;;;6.83;;
16775;SDS011;8505;49.456;8.164;2023-04-10T00:58:00;9.57;;;6.50;;
16775;SDS011;8505;49.456;8.164;2023-04-10T01:00:30;8.93;;;6.70;;
16775;SDS011;8505;49.456;8.164;2023-04-10T01:02:58;10.18;;;6.95;;
16775;SDS011;8505;49.456;8.164;2023-04-10T01:05:27;9.98;;;6.93;;
16775;SDS011;8505;49.456;8.164;2023-04-10T01:08:07;12.33;;;7.80;;
16775;SDS011;8505;49.456;8.164;2023-04-10T01:10:45;12.32;;;7.78;;
16775;SDS011;8505;49.456;8.164;2023-04-10T01:13:20;13.55;;;7.85;;
16775;SDS011;8505;49.456;8.164;2023-04-10T01:15:53;11.38;;;7.70;;
16775;SDS011;8505;49.456;8.164;2023-04-10T01:18:30;12.38;;;7.75;;
16775;SDS011;8505;49.456;8.164;2023-04-10T01:21:01;10.93;;;7.60;;
16775;SDS011;8505;49.456;8.164;2023-04-10T01:23:40;11.20;;;7.60;;
16775;SDS011;8505;49.456;8.164;2023-04-10T01:26:21;11.23;;;7.85;;
16775;SDS011;8505;49.456;8.164;2023-04-10T01:29:04;11.50;;;8.13;;
16775;SDS011;8505;49.456;8.164;2023-04-10T01:31:35;12.00;;;8.18;;
16775;SDS011;8505;49.456;8.164;2023-04-10T01:34:09;13.18;;;8.90;;
16775;SDS011;8505;49.456;8.164;2023-04-10T01:36:49;11.85;;;8.70;;
16775;SDS011;8505;49.456;8.164;2023-04-10T01:39:20;12.60;;;8.90;;
16775;SDS011;8505;49.456;8.164;2023-04-10T01:41:49;12.27;;;8.50;;
16775;SDS011;8505;49.456;8.164;2023-04-10T01:44:20;13.20;;;8.68;;
16775;SDS011;8505;49.456;8.164;2023-04-10T01:46:51;13.60;;;8.95;;
16775;SDS011;8505;49.456;8.164;2023-04-10T01:49:19;12.17;;;8.73;;
16775;SDS011;8505;49.456;8.164;2023-04-10T01:51:50;14.38;;;8.80;;
16775;SDS011;8505;49.456;8.164;2023-04-10T01:54:19;13.40;;;8.73;;
16775;SDS011;8505;49.456;8.164;2023-04-10T01:56:47;12.40;;;9.00;;
16775;SDS011;8505;49.456;8.164;2023-04-10T01:59:15;12.88;;;8.88;;
16775;SDS011;8505;49.456;8.164;2023-04-10T02:01:44;12.68;;;8.68;;
16775;SDS011;8505;49.456;8.164;2023-04-10T02:04:12;12.65;;;9.05;;
16775;SDS011;8505;49.456;8.164;2023-04-10T02:06:41;12.32;;;8.82;;
16775;SDS011;8505;49.456;8.164;2023-04-10T02:09:18;12.48;;;8.73;;
16775;SDS011;8505;49.456;8.164;2023-04-10T02:11:48;12.70;;;8.85;;
16775;SDS011;8505;49.456;8.164;2023-04-10T02:14:21;12.32;;;8.70;;
16775;SDS011;8505;49.456;8.164;2023-04-10T02:16:52;13.23;;;9.07;;
16775;SDS011;8505;49.456;8.164;2023-04-10T02:19:21;13.60;;;9.33;;
16775;SDS011;8505;49.456;8.164;2023-04-10T02:21:51;12.27;;;8.70;;
16775;SDS011;8505;49.456;8.164;2023-04-10T02:24:20;12.52;;;8.63;;
16775;SDS011;8505;49.456;8.164;2023-04-10T02:26:49;13.02;;;8.82;;
16775;SDS011;8505;49.456;8.164;2023-04-10T02:29:17;13.57;;;9.05;;
16775;SDS011;8505;49.456;8.164;2023-04-10T02:31:45;13.57;;;9.48;;
16775;SDS011;8505;49.456;8.164;2023-04-10T02:34:14;13.07;;;9.20;;
16775;SDS011;8505;49.456;8.164;2023-04-10T02:36:42;13.68;;;9.30;;
16775;SDS011;8505;49.456;8.164;2023-04-10T02:39:09;12.82;;;9.48;;
16775;SDS011;8505;49.456;8.164;2023-04-10T02:41:37;12.90;;;9.27;;
16775;SDS011;8505;49.456;8.164;2023-04-10T02:44:05;13.95;;;9.57;;
16775;SDS011;8505;49.456;8.164;2023-04-10T02:46:33;14.48;;;9.40;;
16775;SDS011;8505;49.456;8.164;2023-04-10T02:49:00;14.70;;;9.25;;
16775;SDS011;8505;49.456;8.164;2023-04-10T02:51:32;13.10;;;9.20;;
16775;SDS011;8505;49.456;8.164;2023-04-10T02:54:01;13.73;;;9.38;;
16775;SDS011;8505;49.456;8.164;2023-04-10T02:56:32;14.10;;;9.82;;
16775;SDS011;8505;49.456;8.164;2023-04-10T02:59:00;13.60;;;9.32;;
16775;SDS011;8505;49.456;8.164;2023-04-10T03:01:27;14.18;;;9.43;;
16775;SDS011;8505;49.456;8.164;2023-04-10T03:03:56;13.63;;;9.90;;
16775;SDS011;8505;49.456;8.164;2023-04-10T03:06:24;13.47;;;9.77;;
16775;SDS011;8505;49.456;8.164;2023-04-10T03:08:53;13.35;;;9.80;;
16775;SDS011;8505;49.456;8.164;2023-04-10T03:11:21;12.27;;;9.27;;
16775;SDS011;8505;49.456;8.164;2023-04-10T03:13:49;13.70;;;9.90;;
16775;SDS011;8505;49.456;8.164;2023-04-10T03:16:17;14.52;;;9.73;;
16775;SDS011;8505;49.456;8.164;2023-04-10T03:18:45;14.13;;;10.00;;
16775;SDS011;8505;49.456;8.164;2023-04-10T03:21:13;14.07;;;9.75;;
16775;SDS011;8505;49.456;8.164;2023-04-10T03:23:41;13.68;;;9.27;;
16775;SDS011;8505;49.456;8.164;2023-04-10T03:26:10;13.75;;;9.70;;
16775;SDS011;8505;49.456;8.164;2023-04-10T03:28:38;13.40;;;9.25;;
16775;SDS011;8505;49.456;8.164;2023-04-10T03:31:06;14.18;;;9.52;;
16775;SDS011;8505;49.456;8.164;2023-04-10T03:33:35;14.30;;;9.77;;
16775;SDS011;8505;49.456;8.164;2023-04-10T03:36:02;13.60;;;9.30;;
16775;SDS011;8505;49.456;8.164;2023-04-10T03:38:31;13.73;;;9.77;;
16775;SDS011;8505;49.456;8.164;2023-04-10T03:40:58;13.50;;;9.67;;
16775;SDS011;8505;49.456;8.164;2023-04-10T03:43:27;14.05;;;9.70;;
16775;SDS011;8505;49.456;8.164;2023-04-10T03:45:55;13.80;;;9.63;;
16775;SDS011;8505;49.456;8.164;2023-04-10T03:48:23;17.75;;;10.55;;
16775;SDS011;8505;49.456;8.164;2023-04-10T03:50:53;14.07;;;9.90;;
16775;SDS011;8505;49.456;8.164;2023-04-10T03:53:21;13.83;;;10.07;;
16775;SDS011;8505;49.456;8.164;2023-04-10T03:55:49;14.77;;;10.35;;
16775;SDS011;8505;49.456;8.164;2023-04-10T03:58:17;15.13;;;10.40;;
16775;SDS011;8505;49.456;8.164;2023-04-10T04:00:46;15.13;;;10.30;;
16775;SDS011;8505;49.456;8.164;2023-04-10T04:03:14;13.57;;;10.07;;
16775;SDS011;8505;49.456;8.164;2023-04-10T04:05:42;15.73;;;10.60;;
16775;SDS011;8505;49.456;8.164;2023-04-10T04:08:10;14.30;;;10.60;;
16775;SDS011;8505;49.456;8.164;2023-04-10T04:10:39;14.82;;;10.55;;
16775;SDS011;8505;49.456;8.164;2023-04-10T04:13:06;14.60;;;10.20;;
16775;SDS011;8505;49.456;8.164;2023-04-10T04:15:34;15.67;;;10.00;;
16775;SDS011;8505;49.456;8.164;2023-04-10T04:18:03;14.50;;;10.85;;
16775;SDS011;8505;49.456;8.164;2023-04-10T04:20:31;14.63;;;10.23;;
16775;SDS011;8505;49.456;8.164;2023-04-10T04:22:59;15.30;;;10.45;;
16775;SDS011;8505;49.456;8.164;2023-04-10T04:25:26;15.80;;;10.63;;
16775;SDS011;8505;49.456;8.164;2023-04-10T04:27:54;16.10;;;11.57;;
16775;SDS011;8505;49.456;8.164;2023-04-10T04:30:22;14.98;;;10.88;;
16775;SDS011;8505;49.456;8.164;2023-04-10T04:32:50;15.30;;;10.60;;
16775;SDS011;8505;49.456;8.164;2023-04-10T04:35:19;14.38;;;10.30;;
16775;SDS011;8505;49.456;8.164;2023-04-10T04:37:47;15.70;;;11.13;;
16775;SDS011;8505;49.456;8.164;2023-04-10T04:40:15;14.77;;;10.45;;
16775;SDS011;8505;49.456;8.164;2023-04-10T04:42:43;15.38;;;10.38;;
16775;SDS011;8505;49.456;8.164;2023-04-10T04:45:11;16.23;;;10.80;;
16775;SDS011;8505;49.456;8.164;2023-04-10T04:47:39;16.10;;;10.63;;
16775;SDS011;8505;49.456;8.164;2023-04-10T04:50:08;14.95;;;10.65;;
16775;SDS011;8505;49.456;8.164;2023-04-10T04:52:37;15.77;;;10.70;;
16775;SDS011;8505;49.456;8.164;2023-04-10T04:55:06;14.70;;;10.27;;
16775;SDS011;8505;49.456;8.164;2023-04-10T04:57:34;14.50;;;10.35;;
16775;SDS011;8505;49.456;8.164;2023-04-10T05:00:02;16.35;;;10.73;;
16775;SDS011;8505;49.456;8.164;2023-04-10T05:02:31;15.27;;;10.35;;
16775;SDS011;8505;49.456;8.164;2023-04-10T05:04:59;15.35;;;10.63;;
16775;SDS011;8505;49.456;8.164;2023-04-10T05:07:27;17.52;;;10.63;;
16775;SDS011;8505;49.456;8.164;2023-04-10T05:09:56;15.85;;;10.20;;
16775;SDS011;8505;49.456;8.164;2023-04-10T05:12:24;16.00;;;10.40;;
16775;SDS011;8505;49.456;8.164;2023-04-10T05:14:51;14.75;;;10.00;;
16775;SDS011;8505;49.456;8.164;2023-04-10T05:17:19;15.23;;;10.40;;
16775;SDS011;8505;49.456;8.164;2023-04-10T05:19:47;14.75;;;10.52;;
16775;SDS011;8505;49.456;8.164;2023-04-10T05:22:15;15.50;;;10.48;;
16775;SDS011;8505;49.456;8.164;2023-04-10T05:24:43;15.25;;;10.63;;
16775;SDS011;8505;49.456;8.164;2023-04-10T05:27:13;14.15;;;10.45;;
16775;SDS011;8505;49.456;8.164;2023-04-10T05:29:40;15.20;;;10.50;;
16775;SDS011;8505;49.456;8.164;2023-04-10T05:32:08;14.43;;;10.13;;
16775;SDS011;8505;49.456;8.164;2023-04-10T05:34:36;14.27;;;10.20;;
16775;SDS011;8505;49.456;8.164;2023-04-10T05:37:03;13.80;;;9.70;;
16775;SDS011;8505;49.456;8.164;2023-04-10T05:39:31;13.15;;;9.80;;
16775;SDS011;8505;49.456;8.164;2023-04-10T05:41:59;14.03;;;9.70;;
16775;SDS011;8505;49.456;8.164;2023-04-10T05:44:28;14.48;;;10.15;;
16775;SDS011;8505;49.456;8.164;2023-04-10T05:46:56;14.13;;;10.30;;
16775;SDS011;8505;49.456;8.164;2023-04-10T05:49:24;13.85;;;10.20;;
16775;SDS011;8505;49.456;8.164;2023-04-10T05:51:52;13.00;;;9.43;;
16775;SDS011;8505;49.456;8.164;2023-04-10T05:54:20;13.80;;;9.50;;
16775;SDS011;8505;49.456;8.164;2023-04-10T05:56:47;14.13;;;10.18;;
16775;SDS011;8505;49.456;8.164;2023-04-10T05:59:15;13.40;;;9.57;;
16775;SDS011;8505;49.456;8.164;2023-04-10T06:01:44;12.45;;;9.70;;
16775;SDS011;8505;49.456;8.164;2023-04-10T06:04:12;13.27;;;9.70;;
16775;SDS011;8505;49.456;8.164;2023-04-10T06:06:40;11.60;;;8.95;;
16775;SDS011;8505;49.456;8.164;2023-04-10T06:09:08;13.27;;;9.88;;
16775;SDS011;8505;49.456;8.164;2023-04-10T06:11:36;13.73;;;9.80;;
16775;SDS011;8505;49.456;8.164;2023-04-10T06:14:03;13.55;;;10.23;;
16775;SDS011;8505;49.456;8.164;2023-04-10T06:16:31;12.18;;;9.02;;
16775;SDS011;8505;49.456;8.164;2023-04-10T06:19:01;13.43;;;9.90;;
16775;SDS011;8505;49.456;8.164;2023-04-10T06:21:29;12.38;;;9.43;;
16775;SDS011;8505;49.456;8.164;2023-04-10T06:23:56;12.50;;;9.65;;
16775;SDS011;8505;49.456;8.164;2023-04-10T06:26:24;16.13;;;12.00;;
16775;SDS011;8505;49.456;8.164;2023-04-10T06:28:52;18.67;;;14.60;;
16775;SDS011;8505;49.456;8.164;2023-04-10T06:31:20;18.02;;;14.15;;
16775;SDS011;8505;49.456;8.164;2023-04-10T06:33:48;18.63;;;14.38;;
16775;SDS011;8505;49.456;8.164;2023-04-10T06:36:18;13.80;;;11.03;;
16775;SDS011;8505;49.456;8.164;2023-04-10T06:38:45;14.73;;;10.73;;
16775;SDS011;8505;49.456;8.164;2023-04-10T06:41:13;13.38;;;10.15;;
16775;SDS011;8505;49.456;8.164;2023-04-10T06:43:41;14.98;;;10.30;;
16775;SDS011;8505;49.456;8.164;2023-04-10T06:46:09;15.77;;;10.88;;
16775;SDS011;8505;49.456;8.164;2023-04-10T06:48:36;12.73;;;9.60;;
16775;SDS011;8505;49.456;8.164;2023-04-10T06:51:04;12.63;;;9.68;;
16775;SDS011;8505;49.456;8.164;2023-04-10T06:53:33;12.70;;;9.63;;
16775;SDS011;8505;49.456;8.164;2023-04-10T06:56:01;13.77;;;9.27;;
16775;SDS011;8505;49.456;8.164;2023-04-10T06:58:29;12.40;;;9.25;;
16775;SDS011;8505;49.456;8.164;2023-04-10T07:00:57;10.95;;;8.43;;
16775;SDS011;8505;49.456;8.164;2023-04-10T07:03:29;12.50;;;9.13;;
16775;SDS011;8505;49.456;8.164;2023-04-10T07:05:57;11.57;;;8.80;;
16775;SDS011;8505;49.456;8.164;2023-04-10T07:08:25;10.70;;;8.30;;
16775;SDS011;8505;49.456;8.164;2023-04-10T07:10:54;11.27;;;8.38;;
16775;SDS011;8505;49.456;8.164;2023-04-10T07:13:24;11.27;;;8.60;;
16775;SDS011;8505;49.456;8.164;2023-04-10T07:15:51;11.15;;;8.30;;
16775;SDS011;8505;49.456;8.164;2023-04-10T07:18:19;10.52;;;8.18;;
16775;SDS011;8505;49.456;8.164;2023-04-10T07:20:47;14.67;;;10.20;;
16775;SDS011;8505;49.456;8.164;2023-04-10T07:23:17;20.25;;;12.15;;
16775;SDS011;8505;49.456;8.164;2023-04-10T07:25:45;31.33;;;18.77;;
16775;SDS011;8505;49.456;8.164;2023-04-10T07:28:14;18.05;;;12.48;;
16775;SDS011;8505;49.456;8.164;2023-04-10T07:30:42;12.18;;;9.10;;
16775;SDS011;8505;49.456;8.164;2023-04-10T07:33:10;18.88;;;12.13;;
16775;SDS011;8505;49.456;8.164;2023-04-10T07:35:37;13.97;;;9.67;;
16775;SDS011;8505;49.456;8.164;2023-04-10T07:38:05;19.92;;;13.98;;
16775;SDS011;8505;49.456;8.164;2023-04-10T07:40:33;12.85;;;10.00;;
16775;SDS011;8505;49.456;8.164;2023-04-10T07:43:00;11.10;;;8.40;;
16775;SDS011;8505;49.456;8.164;2023-04-10T07:45:29;11.27;;;8.48;;
16775;SDS011;8505;49.456;8.164;2023-04-10T07:47:57;10.75;;;7.97;;
16775;SDS011;8505;49.456;8.164;2023-04-10T07:50:25;10.27;;;7.85;;
16775;SDS011;8505;49.456;8.164;2023-04-10T07:52:53;10.90;;;8.30;;
16775;SDS011;8505;49.456;8.164;2023-04-10T07:55:21;9.95;;;7.78;;
16775;SDS011;8505;49.456;8.164;2023-04-10T07:57:49;11.35;;;7.70;;
16775;SDS011;8505;49.456;8.164;2023-04-10T08:00:17;10.95;;;7.50;;
16775;SDS011;8505;49.456;8.164;2023-04-10T08:02:46;10.15;;;7.97;;
16775;SDS011;8505;49.456;8.164;2023-04-10T08:05:14;10.98;;;8.10;;
16775;SDS011;8505;49.456;8.164;2023-04-10T08:07:42;9.77;;;7.72;;
16775;SDS011;8505;49.456;8.164;2023-04-10T08:10:11;11.40;;;8.30;;
16775;SDS011;8505;49.456;8.164;2023-04-10T08:12:39;10.55;;;8.07;;
16775;SDS011;8505;49.456;8.164;2023-04-10T08:15:06;11.00;;;8.00;;
16775;SDS011;8505;49.456;8.164;2023-04-10T08:17:35;10.32;;;7.75;;
16775;SDS011;8505;49.456;8.164;2023-04-10T08:20:04;11.30;;;7.63;;
16775;SDS011;8505;49.456;8.164;2023-04-10T08:22:33;10.25;;;7.95;;
16775;SDS011;8505;49.456;8.164;2023-04-10T08:25:01;10.13;;;7.83;;
16775;SDS011;8505;49.456;8.164;2023-04-10T08:27:29;10.35;;;8.00;;
16775;SDS011;8505;49.456;8.164;2023-04-10T08:29:56;10.68;;;7.85;;
16775;SDS011;8505;49.456;8.164;2023-04-10T08:32:24;11.13;;;8.05;;
16775;SDS011;8505;49.456;8.164;2023-04-10T08:34:52;9.75;;;7.63;;
16775;SDS011;8505;49.456;8.164;2023-04-10T08:37:21;10.05;;;7.90;;
16775;SDS011;8505;49.456;8.164;2023-04-10T08:39:49;11.02;;;7.97;;
16775;SDS011;8505;49.456;8.164;2023-04-10T08:42:17;9.68;;;7.63;;
16775;SDS011;8505;49.456;8.164;2023-04-10T08:44:47;9.30;;;7.40;;
16775;SDS011;8505;49.456;8.164;2023-04-10T08:47:15;9.73;;;7.32;;
16775;SDS011;8505;49.456;8.164;2023-04-10T08:49:52;10.18;;;7.90;;
16775;SDS011;8505;49.456;8.164;2023-04-10T08:52:23;11.00;;;7.80;;
16775;SDS011;8505;49.456;8.164;2023-04-10T08:54:52;10.90;;;7.78;;
16775;SDS011;8505;49.456;8.164;2023-04-10T08:57:21;9.50;;;7.50;;
16775;SDS011;8505;49.456;8.164;2023-04-10T08:59:52;9.30;;;7.30;;
16775;SDS011;8505;49.456;8.164;2023-04-10T09:02:20;10.27;;;7.68;;
16775;SDS011;8505;49.456;8.164;2023-04-10T09:04:49;9.60;;;7.30;;
16775;SDS011;8505;49.456;8.164;2023-04-10T09:07:19;9.23;;;7.05;;
16775;SDS011;8505;49.456;8.164;2023-04-10T09:09:49;9.05;;;7.07;;
16775;SDS011;8505;49.456;8.164;2023-04-10T09:12:17;9.02;;;6.85;;
16775;SDS011;8505;49.456;8.164;2023-04-10T09:14:44;9.53;;;6.77;;
16775;SDS011;8505;49.456;8.164;2023-04-10T09:17:15;8.90;;;6.72;;
16775;SDS011;8505;49.456;8.164;2023-04-10T09:19:45;9.45;;;6.32;;
16775;SDS011;8505;49.456;8.164;2023-04-10T09:22:13;8.18;;;6.15;;
16775;SDS011;8505;49.456;8.164;2023-04-10T09:24:42;8.90;;;6.00;;
16775;SDS011;8505;49.456;8.164;2023-04-10T09:27:26;6.80;;;5.65;;
16775;SDS011;8505;49.456;8.164;2023-04-10T09:29:56;7.00;;;5.60;;
16775;SDS011;8505;49.456;8.164;2023-04-10T09:32:35;6.67;;;5.07;;
16775;SDS011;8505;49.456;8.164;2023-04-10T09:35:04;7.18;;;5.50;;
16775;SDS011;8505;49.456;8.164;2023-04-10T09:37:34;8.00;;;5.68;;
16775;SDS011;8505;49.456;8.164;2023-04-10T09:40:03;6.90;;;5.53;;
16775;SDS011;8505;49.456;8.164;2023-04-10T09:42:34;6.70;;;5.60;;
16775;SDS011;8505;49.456;8.164;2023-04-10T09:45:03;6.73;;;5.13;;
16775;SDS011;8505;49.456;8.164;2023-04-10T09:47:31;6.18;;;5.03;;
16775;SDS011;8505;49.456;8.164;2023-04-10T09:49:59;6.55;;;5.43;;
16775;SDS011;8505;49.456;8.164;2023-04-10T09:52:28;7.50;;;5.70;;
16775;SDS011;8505;49.456;8.164;2023-04-10T09:54:58;7.80;;;5.50;;
16775;SDS011;8505;49.456;8.164;2023-04-10T09:57:28;10.38;;;7.65;;
16775;SDS011;8505;49.456;8.164;2023-04-10T09:59:59;6.90;;;5.70;;
16775;SDS011;8505;49.456;8.164;2023-04-10T10:02:28;7.18;;;5.35;;
16775;SDS011;8505;49.456;8.164;2023-04-10T10:04:57;6.97;;;5.20;;
16775;SDS011;8505;49.456;8.164;2023-04-10T10:07:26;6.28;;;5.07;;
16775;SDS011;8505;49.456;8.164;2023-04-10T10:09:56;5.95;;;4.90;;
16775;SDS011;8505;49.456;8.164;2023-04-10T10:12:25;6.47;;;5.18;;
16775;SDS011;8505;49.456;8.164;2023-04-10T10:15:03;6.43;;;4.82;;
16775;SDS011;8505;49.456;8.164;2023-04-10T10:17:37;5.68;;;4.60;;
16775;SDS011;8505;49.456;8.164;2023-04-10T10:20:10;7.10;;;4.93;;
16775;SDS011;8505;49.456;8.164;2023-04-10T10:22:39;6.60;;;4.70;;
16775;SDS011;8505;49.456;8.164;2023-04-10T10:25:08;6.25;;;5.05;;
16775;SDS011;8505;49.456;8.164;2023-04-10T10:27:36;6.47;;;4.72;;
16775;SDS011;8505;49.456;8.164;2023-04-10T10:30:07;5.18;;;4.32;;
16775;SDS011;8505;49.456;8.164;2023-04-10T10:32:55;5.00;;;4.10;;
16775;SDS011;8505;49.456;8.164;2023-04-10T10:35:24;5.05;;;3.65;;
16775;SDS011;8505;49.456;8.164;2023-04-10T10:37:55;4.85;;;3.97;;
16775;SDS011;8505;49.456;8.164;2023-04-10T10:40:26;4.90;;;3.92;;
16775;SDS011;8505;49.456;8.164;2023-04-10T10:43:01;4.82;;;3.90;;
16775;SDS011;8505;49.456;8.164;2023-04-10T10:45:41;5.20;;;3.90;;
16775;SDS011;8505;49.456;8.164;2023-04-10T10:48:17;4.82;;;4.05;;
16775;SDS011;8505;49.456;8.164;2023-04-10T10:50:51;4.60;;;3.80;;
16775;SDS011;8505;49.456;8.164;2023-04-10T10:53:31;4.70;;;3.90;;
16775;SDS011;8505;49.456;8.164;2023-04-10T10:59:03;4.60;;;4.00;;
16775;SDS011;8505;49.456;8.164;2023-04-10T11:01:32;4.80;;;3.80;;
16775;SDS011;8505;49.456;8.164;2023-04-10T11:04:01;4.93;;;3.73;;
16775;SDS011;8505;49.456;8.164;2023-04-10T11:07:07;4.82;;;3.72;;
16775;SDS011;8505;49.456;8.164;2023-04-10T11:09:45;4.03;;;3.30;;
16775;SDS011;8505;49.456;8.164;2023-04-10T11:12:14;3.70;;;3.20;;
16775;SDS011;8505;49.456;8.164;2023-04-10T11:14:42;3.75;;;3.15;;
16775;SDS011;8505;49.456;8.164;2023-04-10T11:17:12;5.35;;;3.70;;
16775;SDS011;8505;49.456;8.164;2023-04-10T11:20:14;3.50;;;3.00;;
16775;SDS011;8505;49.456;8.164;2023-04-10T11:25:46;3.88;;;3.20;;
16775;SDS011;8505;49.456;8.164;2023-04-10T11:28:34;3.38;;;2.92;;
16775;SDS011;8505;49.456;8.164;2023-04-10T11:31:13;3.42;;;2.60;;
16775;SDS011;8505;49.456;8.164;2023-04-10T11:33:48;3.35;;;2.80;;
16775;SDS011;8505;49.456;8.164;2023-04-10T11:36:26;3.83;;;3.03;;
16775;SDS011;8505;49.456;8.164;2023-04-10T11:38:55;3.25;;;2.78;;
16775;SDS011;8505;49.456;8.164;2023-04-10T11:41:27;2.92;;;2.60;;
16775;SDS011;8505;49.456;8.164;2023-04-10T11:43:57;3.17;;;2.70;;
16775;SDS011;8505;49.456;8.164;2023-04-10T11:46:25;2.97;;;2.67;;
16775;SDS011;8505;49.456;8.164;2023-04-10T11:48:56;3.50;;;3.03;;
16775;SDS011;8505;49.456;8.164;2023-04-10T11:51:26;3.25;;;2.78;;
16775;SDS011;8505;49.456;8.164;2023-04-10T11:54:07;3.00;;;2.60;;
16775;SDS011;8505;49.456;8.164;2023-04-10T11:56:36;3.70;;;2.90;;
16775;SDS011;8505;49.456;8.164;2023-04-10T11:59:06;4.40;;;3.10;;
16775;SDS011;8505;49.456;8.164;2023-04-10T12:01:36;3.28;;;2.90;;
16775;SDS011;8505;49.456;8.164;2023-04-10T12:04:15;3.00;;;2.70;;
16775;SDS011;8505;49.456;8.164;2023-04-10T12:06:45;3.30;;;2.83;;
16775;SDS011;8505;49.456;8.164;2023-04-10T12:09:13;3.53;;;2.80;;
16775;SDS011;8505;49.456;8.164;2023-04-10T12:11:52;2.85;;;2.55;;
16775;SDS011;8505;49.456;8.164;2023-04-10T12:14:21;3.00;;;2.60;;
16775;SDS011;8505;49.456;8.164;2023-04-10T12:16:50;3.70;;;2.90;;
16775;SDS011;8505;49.456;8.164;2023-04-10T12:19:20;3.70;;;2.63;;
16775;SDS011;8505;49.456;8.164;2023-04-10T12:21:48;4.18;;;2.70;;
16775;SDS011;8505;49.456;8.164;2023-04-10T12:27:16;3.30;;;2.80;;
16775;SDS011;8505;49.456;8.164;2023-04-10T12:29:44;3.10;;;2.58;;
16775;SDS011;8505;49.456;8.164;2023-04-10T12:32:12;3.05;;;2.70;;
16775;SDS011;8505;49.456;8.164;2023-04-10T12:34:42;2.90;;;2.53;;
16775;SDS011;8505;49.456;8.164;2023-04-10T12:37:16;2.72;;;2.30;;
16775;SDS011;8505;49.456;8.164;2023-04-10T12:39:44;3.20;;;2.50;;
16775;SDS011;8505;49.456;8.164;2023-04-10T12:42:12;2.72;;;2.40;;
16775;SDS011;8505;49.456;8.164;2023-04-10T12:44:50;3.10;;;2.50;;
16775;SDS011;8505;49.456;8.164;2023-04-10T12:47:19;3.45;;;2.20;;
16775;SDS011;8505;49.456;8.164;2023-04-10T12:50:05;2.50;;;2.30;;
16775;SDS011;8505;49.456;8.164;2023-04-10T12:52:34;3.03;;;2.67;;
16775;SDS011;8505;49.456;8.164;2023-04-10T12:55:08;2.80;;;2.47;;
16775;SDS011;8505;49.456;8.164;2023-04-10T12:57:38;2.88;;;2.35;;
16775;SDS011;8505;49.456;8.164;2023-04-10T13:00:08;2.90;;;2.10;;
16775;SDS011;8505;49.456;8.164;2023-04-10T13:02:37;2.78;;;2.30;;
16775;SDS011;8505;49.456;8.164;2023-04-10T13:05:08;2.70;;;2.40;;
16775;SDS011;8505;49.456;8.164;2023-04-10T13:07:36;2.95;;;2.13;;
16775;SDS011;8505;49.456;8.164;2023-04-10T13:10:05;2.70;;;2.30;;
16775;SDS011;8505;49.456;8.164;2023-04-10T13:12:33;2.97;;;2.38;;
16775;SDS011;8505;49.456;8.164;2023-04-10T13:15:03;3.10;;;2.00;;
16775;SDS011;8505;49.456;8.164;2023-04-10T13:17:32;2.50;;;2.03;;
16775;SDS011;8505;49.456;8.164;2023-04-10T13:20:00;3.28;;;2.47;;
16775;SDS011;8505;49.456;8.164;2023-04-10T13:22:30;2.90;;;2.10;;
16775;SDS011;8505;49.456;8.164;2023-04-10T13:24:57;2.42;;;2.10;;
16775;SDS011;8505;49.456;8.164;2023-04-10T13:27:25;3.07;;;2.37;;
16775;SDS011;8505;49.456;8.164;2023-04-10T13:29:53;3.80;;;2.40;;
16775;SDS011;8505;49.456;8.164;2023-04-10T13:32:21;6.72;;;5.00;;
16775;SDS011;8505;49.456;8.164;2023-04-10T13:34:49;3.97;;;3.40;;
16775;SDS011;8505;49.456;8.164;2023-04-10T13:37:17;3.27;;;2.50;;
16775;SDS011;8505;49.456;8.164;2023-04-10T13:39:47;2.53;;;2.28;;
16775;SDS011;8505;49.456;8.164;2023-04-10T13:42:14;2.53;;;2.30;;
16775;SDS011;8505;49.456;8.164;2023-04-10T13:44:42;3.40;;;2.42;;
16775;SDS011;8505;49.456;8.164;2023-04-10T13:47:10;2.70;;;2.30;;
16775;SDS011;8505;49.456;8.164;2023-04-10T13:49:38;2.60;;;2.30;;
16775;SDS011;8505;49.456;8.164;2023-04-10T13:52:05;2.80;;;2.20;;
16775;SDS011;8505;49.456;8.164;2023-04-10T13:54:33;2.60;;;2.20;;
16775;SDS011;8505;49.456;8.164;2023-04-10T13:57:04;3.95;;;2.10;;
16775;SDS011;8505;49.456;8.164;2023-04-10T13:59:32;3.05;;;2.28;;
16775;SDS011;8505;49.456;8.164;2023-04-10T14:01:59;2.37;;;2.00;;
16775;SDS011;8505;49.456;8.164;2023-04-10T14:04:28;2.75;;;2.10;;
16775;SDS011;8505;49.456;8.164;2023-04-10T14:06:55;2.80;;;2.05;;
16775;SDS011;8505;49.456;8.164;2023-04-10T14:09:25;2.63;;;2.00;;
16775;SDS011;8505;49.456;8.164;2023-04-10T14:11:53;2.38;;;2.00;;
16775;SDS011;8505;49.456;8.164;2023-04-10T14:14:22;2.40;;;2.00;;
16775;SDS011;8505;49.456;8.164;2023-04-10T14:16:50;2.90;;;2.20;;
16775;SDS011;8505;49.456;8.164;2023-04-10T14:19:18;2.25;;;1.80;;
16775;SDS011;8505;49.456;8.164;2023-04-10T14:21:45;3.70;;;2.00;;
16775;SDS011;8505;49.456;8.164;2023-04-10T14:24:13;3.00;;;2.08;;
16775;SDS011;8505;49.456;8.164;2023-04-10T14:26:41;3.97;;;2.88;;
16775;SDS011;8505;49.456;8.164;2023-04-10T14:29:08;2.20;;;1.90;;
16775;SDS011;8505;49.456;8.164;2023-04-10T14:31:37;3.15;;;1.90;;
16775;SDS011;8505;49.456;8.164;2023-04-10T14:34:19;12.45;;;9.52;;
16775;SDS011;8505;49.456;8.164;2023-04-10T14:36:47;2.30;;;1.98;;
16775;SDS011;8505;49.456;8.164;2023-04-10T14:39:21;1.92;;;1.63;;
16775;SDS011;8505;49.456;8.164;2023-04-10T14:41:50;1.70;;;1.50;;
16775;SDS011;8505;49.456;8.164;2023-04-10T14:44:18;2.00;;;1.60;;
16775;SDS011;8505;49.456;8.164;2023-04-10T14:46:47;2.45;;;1.88;;
16775;SDS011;8505;49.456;8.164;2023-04-10T14:49:15;2.00;;;1.73;;
16775;SDS011;8505;49.456;8.164;2023-04-10T14:51:43;2.53;;;1.88;;
16775;SDS011;8505;49.456;8.164;2023-04-10T14:54:13;1.60;;;1.50;;
16775;SDS011;8505;49.456;8.164;2023-04-10T14:56:42;2.65;;;1.83;;
16775;SDS011;8505;49.456;8.164;2023-04-10T14:59:10;2.20;;;1.70;;
16775;SDS011;8505;49.456;8.164;2023-04-10T15:01:37;2.70;;;1.77;;
16775;SDS011;8505;49.456;8.164;2023-04-10T15:04:07;2.22;;;1.60;;
16775;SDS011;8505;49.456;8.164;2023-04-10T15:06:35;2.10;;;1.80;;
16775;SDS011;8505;49.456;8.164;2023-04-10T15:09:02;2.63;;;1.90;;
16775;SDS011;8505;49.456;8.164;2023-04-10T15:11:30;2.20;;;1.70;;
16775;SDS011;8505;49.456;8.164;2023-04-10T15:13:58;2.65;;;1.75;;
16775;SDS011;8505;49.456;8.164;2023-04-10T15:16:27;1.92;;;1.60;;